createdAt,value
2022-07-29T00:01:19.181Z,19.71
2022-07-29T00:04:21.867Z,19.67
2022-07-29T00:07:23.490Z,19.55
2022-07-29T00:10:24.871Z,19.36
2022-07-29T00:13:31.812Z,19.26
2022-07-29T00:16:34.357Z,19.26
2022-07-29T00:19:35.863Z,19.12
2022-07-29T00:22:38.226Z,19.11
2022-07-29T00:25:39.821Z,19.12
2022-07-29T00:28:41.234Z,19.13
2022-07-29T00:31:42.690Z,19.16
2022-07-29T00:35:02.954Z,19.09
2022-07-29T00:38:04.367Z,19.01
2022-07-29T00:41:05.867Z,19.02
2022-07-29T00:44:07.242Z,19.05
2022-07-29T00:47:09.118Z,18.84
2022-07-29T00:50:11.379Z,18.75
2022-07-29T00:53:12.763Z,18.64
2022-07-29T00:56:14.142Z,18.59
2022-07-29T00:59:15.544Z,18.57
2022-07-29T01:02:17.045Z,18.62
2022-07-29T01:05:19.827Z,18.60
2022-07-29T01:08:21.315Z,18.53
2022-07-29T01:11:22.925Z,18.47
2022-07-29T01:14:24.955Z,18.51
2022-07-29T01:17:33.463Z,18.49
2022-07-29T01:20:50.208Z,18.41
2022-07-29T01:24:10.379Z,18.39
2022-07-29T01:27:18.188Z,18.41
2022-07-29T01:30:19.657Z,18.38
2022-07-29T01:33:43.348Z,18.24
2022-07-29T01:36:45.728Z,18.09
2022-07-29T01:39:47.377Z,18.04
2022-07-29T01:42:52.984Z,17.96
2022-07-29T01:45:57.233Z,17.94
2022-07-29T01:48:59.888Z,17.89
2022-07-29T01:52:12.246Z,17.90
2022-07-29T01:55:17.382Z,17.92
2022-07-29T01:58:18.807Z,17.72
2022-07-29T02:01:21.422Z,17.64
2022-07-29T02:04:29.395Z,17.71
2022-07-29T02:07:31.642Z,17.61
2022-07-29T02:10:33.672Z,17.58
2022-07-29T02:13:35.377Z,17.58
2022-07-29T02:16:36.840Z,17.65
2022-07-29T02:19:38.288Z,17.60
2022-07-29T02:22:40.273Z,17.44
2022-07-29T02:25:42.187Z,17.31
2022-07-29T02:28:44.282Z,17.25
2022-07-29T02:31:45.706Z,17.16
2022-07-29T02:34:47.085Z,17.19
2022-07-29T02:38:08.417Z,17.12
2022-07-29T02:41:12.296Z,16.99
2022-07-29T02:44:15.643Z,16.83
2022-07-29T02:47:17.112Z,16.86
2022-07-29T02:50:18.916Z,16.82
2022-07-29T02:53:21.006Z,16.75
2022-07-29T02:56:25.031Z,16.77
2022-07-29T02:59:28.037Z,16.74
2022-07-29T03:02:29.454Z,16.71
2022-07-29T03:05:33.483Z,16.71
2022-07-29T03:08:34.912Z,16.80
2022-07-29T03:11:45.931Z,16.84
2022-07-29T03:14:51.693Z,16.70
2022-07-29T03:17:53.102Z,16.80
2022-07-29T03:20:54.478Z,16.79
2022-07-29T03:23:55.851Z,16.56
2022-07-29T03:26:57.558Z,16.41
2022-07-29T03:29:58.964Z,16.45
2022-07-29T03:33:00.402Z,16.54
2022-07-29T03:36:03.385Z,16.59
2022-07-29T03:39:04.750Z,16.59
2022-07-29T03:42:06.171Z,16.41
2022-07-29T03:45:08.377Z,16.35
2022-07-29T03:48:10.523Z,16.32
2022-07-29T03:51:11.923Z,16.39
2022-07-29T03:54:13.289Z,16.40
2022-07-29T03:57:14.659Z,16.36
2022-07-29T04:00:19.021Z,16.34
2022-07-29T04:03:20.588Z,16.37
2022-07-29T04:06:22.053Z,16.42
2022-07-29T04:09:23.511Z,16.40
2022-07-29T04:12:24.913Z,16.38
2022-07-29T04:15:26.815Z,16.40
2022-07-29T04:18:33.057Z,16.12
2022-07-29T04:21:38.134Z,16.15
2022-07-29T04:24:41.880Z,16.23
2022-07-29T04:28:04.035Z,16.27
2022-07-29T04:31:05.626Z,16.14
2022-07-29T04:34:07.084Z,16.15
2022-07-29T04:37:08.592Z,16.06
2022-07-29T04:40:10.102Z,16.08
2022-07-29T04:43:12.568Z,16.19
2022-07-29T04:46:15.769Z,16.23
2022-07-29T04:49:17.311Z,16.14
2022-07-29T04:52:18.712Z,16.06
2022-07-29T04:55:20.113Z,16.08
2022-07-29T04:58:21.574Z,16.13
2022-07-29T05:01:23.012Z,16.19
2022-07-29T05:04:24.422Z,16.28
2022-07-29T05:07:25.955Z,16.33
2022-07-29T05:10:27.349Z,16.38
2022-07-29T05:13:28.977Z,16.39
2022-07-29T05:16:47.599Z,16.42
2022-07-29T05:19:48.999Z,16.47
2022-07-29T05:22:50.394Z,16.63
2022-07-29T05:25:51.809Z,16.81
2022-07-29T05:28:54.778Z,16.92
2022-07-29T05:31:56.181Z,16.99
2022-07-29T05:34:57.587Z,17.05
2022-07-29T05:37:58.959Z,17.11
2022-07-29T05:41:00.630Z,17.19
2022-07-29T05:44:02.072Z,17.27
2022-07-29T05:47:03.456Z,17.30
2022-07-29T05:50:05.418Z,17.39
2022-07-29T05:53:19.935Z,17.54
2022-07-29T05:56:21.885Z,17.61
2022-07-29T05:59:27.061Z,17.74
2022-07-29T06:02:31.308Z,17.87
2022-07-29T06:05:33.244Z,17.95
2022-07-29T06:08:37.923Z,18.10
2022-07-29T06:11:40.464Z,18.13
2022-07-29T06:14:41.876Z,18.17
2022-07-29T06:17:59.030Z,18.22
2022-07-29T06:21:02.374Z,18.25
2022-07-29T06:24:03.806Z,18.39
2022-07-29T06:27:05.221Z,18.54
2022-07-29T06:30:08.261Z,18.79
2022-07-29T06:33:09.781Z,18.97
2022-07-29T06:36:11.226Z,19.11
2022-07-29T06:39:13.938Z,19.22
2022-07-29T06:42:15.465Z,19.30
2022-07-29T06:45:17.181Z,19.42
2022-07-29T06:48:18.558Z,19.48
2022-07-29T06:51:22.265Z,19.68
2022-07-29T06:54:24.865Z,19.76
2022-07-29T06:57:26.329Z,19.83
2022-07-29T07:00:27.750Z,20.03
2022-07-29T07:03:29.129Z,20.22
2022-07-29T07:06:30.541Z,20.34
2022-07-29T07:09:40.316Z,20.57
2022-07-29T07:12:42.134Z,20.74
2022-07-29T07:15:43.771Z,20.94
2022-07-29T07:18:46.192Z,21.02
2022-07-29T07:21:47.699Z,21.19
2022-07-29T07:24:49.106Z,21.49
2022-07-29T07:27:50.527Z,21.56
2022-07-29T07:30:52.146Z,21.64
2022-07-29T07:33:54.481Z,21.76
2022-07-29T07:36:56.167Z,21.89
2022-07-29T07:39:57.608Z,22.17
2022-07-29T07:42:59.014Z,22.13
2022-07-29T07:46:00.571Z,22.23
2022-07-29T07:49:02.032Z,22.27
2022-07-29T07:52:03.762Z,22.24
2022-07-29T07:55:05.320Z,22.40
2022-07-29T07:58:06.717Z,22.41
2022-07-29T08:01:08.507Z,22.45
2022-07-29T08:04:09.978Z,22.55
2022-07-29T08:07:11.406Z,22.82
2022-07-29T08:10:13.205Z,23.09
2022-07-29T08:13:14.570Z,23.58
2022-07-29T08:16:16.477Z,23.36
2022-07-29T08:19:18.136Z,23.09
2022-07-29T08:22:19.592Z,23.58
2022-07-29T08:25:21.573Z,23.87
2022-07-29T08:28:25.720Z,24.14
2022-07-29T08:31:27.470Z,24.24
2022-07-29T08:34:29.510Z,24.02
2022-07-29T08:37:30.883Z,23.89
2022-07-29T08:40:32.844Z,24.07
2022-07-29T08:43:38.174Z,23.82
2022-07-29T08:46:40.451Z,23.58
2022-07-29T08:49:41.820Z,23.59
2022-07-29T08:52:43.229Z,23.41
2022-07-29T08:55:45.467Z,23.53
2022-07-29T08:58:48.745Z,23.27
2022-07-29T09:01:53.967Z,23.20
2022-07-29T09:04:55.684Z,23.45
2022-07-29T09:07:57.095Z,23.42
2022-07-29T09:10:59.335Z,23.53
2022-07-29T09:14:01.188Z,23.74
2022-07-29T09:17:02.906Z,23.76
2022-07-29T09:20:11.509Z,23.64
2022-07-29T09:23:12.903Z,23.76
2022-07-29T09:26:27.083Z,23.78
2022-07-29T09:29:32.094Z,23.91
2022-07-29T09:32:36.686Z,23.75
2022-07-29T09:35:38.084Z,23.92
2022-07-29T09:38:39.446Z,23.74
2022-07-29T09:41:47.075Z,23.68
2022-07-29T09:44:49.785Z,23.76
2022-07-29T09:47:51.646Z,23.66
2022-07-29T09:50:53.502Z,23.83
2022-07-29T09:53:55.306Z,24.28
2022-07-29T09:56:56.992Z,24.86
2022-07-29T10:00:09.091Z,24.92
2022-07-29T10:03:10.553Z,24.59
2022-07-29T10:06:14.721Z,24.17
2022-07-29T10:09:16.534Z,24.06
2022-07-29T10:12:21.148Z,23.99
2022-07-29T10:15:23.181Z,24.69
2022-07-29T10:18:24.573Z,24.95
2022-07-29T10:21:35.869Z,25.07
2022-07-29T10:24:38.546Z,24.92
2022-07-29T10:27:40.653Z,24.89
2022-07-29T10:30:42.037Z,25.35
2022-07-29T10:33:47.478Z,25.42
2022-07-29T10:36:55.677Z,25.15
2022-07-29T10:40:35.771Z,25.59
2022-07-29T10:43:38.800Z,26.30
2022-07-29T10:46:41.260Z,26.40
2022-07-29T10:49:42.787Z,27.46
2022-07-29T10:52:57.920Z,27.35
2022-07-29T10:55:59.309Z,27.18
2022-07-29T10:59:22.834Z,26.15
2022-07-29T11:02:54.297Z,26.59
2022-07-29T11:05:56.676Z,26.43
2022-07-29T11:09:18.353Z,26.47
2022-07-29T11:12:37.039Z,26.60
2022-07-29T11:15:54.598Z,27.13
2022-07-29T11:22:45.838Z,25.70
2022-07-29T11:26:08.748Z,25.83
2022-07-29T11:29:20.836Z,25.76
2022-07-29T11:32:25.484Z,25.98
2022-07-29T11:35:38.525Z,25.50
2022-07-29T11:38:41.629Z,25.65
2022-07-29T11:41:43.103Z,26.00
2022-07-29T11:44:55.180Z,25.94
2022-07-29T11:48:29.686Z,25.64
2022-07-29T11:51:32.709Z,25.60
2022-07-29T11:54:57.286Z,25.52
2022-07-29T11:58:03.704Z,25.68
2022-07-29T12:01:06.217Z,25.64
2022-07-29T12:04:07.906Z,25.77
2022-07-29T12:07:11.135Z,25.38
2022-07-29T12:10:19.965Z,25.25
2022-07-29T12:13:37.833Z,25.10
2022-07-29T12:16:39.652Z,25.38
2022-07-29T12:19:46.071Z,25.27
2022-07-29T12:22:49.444Z,25.15
2022-07-29T12:25:50.885Z,24.99
2022-07-29T12:28:52.306Z,25.09
2022-07-29T12:31:58.008Z,25.11
2022-07-29T12:34:59.914Z,25.22
2022-07-29T12:38:01.305Z,25.03
2022-07-29T12:41:04.383Z,25.04
2022-07-29T12:44:06.021Z,24.83
2022-07-29T12:50:13.355Z,25.14
2022-07-29T12:53:14.826Z,25.08
2022-07-29T12:59:40.493Z,25.10
2022-07-29T13:02:42.561Z,25.34
2022-07-29T13:05:49.173Z,25.33
2022-07-29T13:09:01.478Z,25.29
2022-07-29T13:12:03.146Z,25.21
2022-07-29T13:15:15.211Z,25.16
2022-07-29T13:18:30.268Z,25.10
2022-07-29T13:21:31.645Z,25.16
2022-07-29T13:24:33.061Z,25.28
2022-07-29T13:27:34.962Z,25.25
2022-07-29T13:30:36.400Z,25.39
2022-07-29T13:33:46.121Z,25.63
2022-07-29T13:36:47.727Z,25.62
2022-07-29T13:39:52.958Z,25.38
2022-07-29T13:42:54.815Z,25.26
2022-07-29T13:45:56.482Z,25.07
2022-07-29T13:48:58.022Z,25.40
2022-07-29T13:51:59.907Z,25.42
2022-07-29T13:55:01.950Z,25.35
2022-07-29T13:58:04.250Z,25.42
2022-07-29T14:01:05.995Z,25.45
2022-07-29T14:04:07.540Z,25.18
2022-07-29T14:07:09.078Z,25.21
2022-07-29T14:10:11.367Z,25.48
2022-07-29T14:13:21.840Z,25.46
2022-07-29T14:16:26.994Z,25.27
2022-07-29T14:19:28.489Z,25.28
2022-07-29T14:22:30.404Z,25.33
2022-07-29T14:25:32.415Z,25.27
2022-07-29T14:28:37.875Z,25.46
2022-07-29T14:31:41.697Z,25.44
2022-07-29T14:34:43.422Z,25.30
2022-07-29T14:37:44.917Z,25.45
2022-07-29T14:40:47.588Z,25.53
2022-07-29T14:43:54.409Z,25.28
2022-07-29T14:46:55.899Z,25.23
2022-07-29T14:49:57.271Z,25.32
2022-07-29T14:52:58.704Z,25.35
2022-07-29T14:56:10.360Z,25.54
2022-07-29T14:59:21.476Z,25.59
2022-07-29T15:02:25.644Z,25.57
2022-07-29T15:05:37.634Z,25.57
2022-07-29T15:08:39.055Z,25.48
2022-07-29T15:11:40.455Z,25.45
2022-07-29T15:14:41.830Z,25.61
2022-07-29T15:17:43.352Z,25.61
2022-07-29T15:20:47.045Z,25.45
2022-07-29T15:23:48.470Z,25.60
2022-07-29T15:26:49.913Z,25.60
2022-07-29T15:29:51.432Z,25.38
2022-07-29T15:32:57.501Z,25.32
2022-07-29T15:35:58.924Z,25.25
2022-07-29T15:39:00.395Z,25.20
2022-07-29T15:42:01.938Z,25.48
2022-07-29T15:45:03.916Z,25.60
2022-07-29T15:48:06.141Z,25.30
2022-07-29T15:51:07.694Z,25.31
2022-07-29T15:54:09.141Z,25.30
2022-07-29T15:57:10.669Z,25.32
2022-07-29T16:00:12.243Z,25.53
2022-07-29T16:03:13.687Z,25.64
2022-07-29T16:06:15.109Z,25.46
2022-07-29T16:09:16.636Z,25.79
2022-07-29T16:12:18.033Z,25.89
2022-07-29T16:15:19.533Z,25.85
2022-07-29T16:18:20.992Z,25.76
2022-07-29T16:21:31.717Z,25.78
2022-07-29T16:24:33.112Z,25.74
2022-07-29T16:27:37.519Z,25.76
2022-07-29T16:30:39.610Z,25.80
2022-07-29T16:33:55.067Z,25.71
2022-07-29T16:36:57.318Z,25.39
2022-07-29T16:39:58.705Z,25.39
2022-07-29T16:43:00.082Z,25.77
2022-07-29T16:46:01.608Z,25.80
2022-07-29T16:49:04.321Z,25.90
2022-07-29T16:52:05.851Z,26.16
2022-07-29T16:55:07.474Z,26.30
2022-07-29T16:58:08.875Z,26.05
2022-07-29T17:01:10.340Z,26.12
2022-07-29T17:04:14.791Z,26.02
2022-07-29T17:07:16.555Z,26.04
2022-07-29T17:10:17.975Z,25.88
2022-07-29T17:13:19.499Z,25.78
2022-07-29T17:16:24.645Z,25.80
2022-07-29T17:19:26.357Z,25.74
2022-07-29T17:22:30.789Z,25.55
2022-07-29T17:25:33.167Z,25.66
2022-07-29T17:28:34.625Z,25.56
2022-07-29T17:31:36.097Z,25.57
2022-07-29T17:34:37.863Z,25.56
2022-07-29T17:37:39.240Z,25.48
2022-07-29T17:40:40.651Z,25.30
2022-07-29T17:43:42.239Z,25.18
2022-07-29T17:46:43.720Z,25.12
2022-07-29T17:49:45.213Z,24.97
2022-07-29T17:52:46.691Z,24.71
2022-07-29T17:55:48.769Z,24.60
2022-07-29T17:58:50.553Z,24.56
2022-07-29T18:01:53.212Z,24.48
2022-07-29T18:04:54.759Z,24.36
2022-07-29T18:07:56.356Z,24.31
2022-07-29T18:10:57.762Z,24.14
2022-07-29T18:13:59.158Z,24.10
2022-07-29T18:17:03.933Z,23.97
2022-07-29T18:20:05.738Z,23.97
2022-07-29T18:23:07.251Z,23.88
2022-07-29T18:26:08.730Z,23.74
2022-07-29T18:29:10.509Z,23.71
2022-07-29T18:32:12.293Z,23.60
2022-07-29T18:35:13.688Z,23.49
2022-07-29T18:38:15.104Z,23.41
2022-07-29T18:41:16.525Z,23.34
2022-07-29T18:44:18.832Z,23.21
2022-07-29T18:47:20.266Z,23.08
2022-07-29T18:50:28.255Z,22.89
2022-07-29T18:53:30.503Z,22.63
2022-07-29T18:56:38.479Z,22.50
2022-07-29T18:59:39.884Z,22.28
2022-07-29T19:02:41.366Z,22.06
2022-07-29T19:05:43.941Z,21.91
2022-07-29T19:08:45.345Z,21.76
2022-07-29T19:11:46.761Z,21.59
2022-07-29T19:14:48.174Z,21.47
2022-07-29T19:17:49.607Z,21.32
2022-07-29T19:20:51.053Z,21.05
2022-07-29T19:24:05.839Z,20.88
2022-07-29T19:27:09.057Z,20.91
2022-07-29T19:30:10.633Z,20.89
2022-07-29T19:33:14.572Z,20.86
2022-07-29T19:36:16.556Z,20.73
2022-07-29T19:39:17.949Z,20.73
2022-07-29T19:42:34.798Z,20.66
2022-07-29T19:45:36.229Z,20.52
2022-07-29T19:48:37.784Z,20.49
2022-07-29T19:51:39.670Z,20.46
2022-07-29T19:54:41.218Z,20.35
2022-07-29T19:57:42.784Z,20.26
2022-07-29T20:00:44.490Z,20.15
2022-07-29T20:03:46.615Z,20.03
2022-07-29T20:06:49.488Z,19.91
2022-07-29T20:09:50.917Z,19.77
2022-07-29T20:12:55.202Z,19.84
2022-07-29T20:15:56.858Z,19.82
2022-07-29T20:18:58.397Z,19.75
2022-07-29T20:21:59.801Z,19.57
2022-07-29T20:25:01.198Z,19.49
2022-07-29T20:28:02.600Z,19.40
2022-07-29T20:31:04.033Z,19.36
2022-07-29T20:34:05.641Z,19.29
2022-07-29T20:37:10.417Z,19.25
2022-07-29T20:40:12.540Z,19.27
2022-07-29T20:43:14.184Z,19.28
2022-07-29T20:46:15.791Z,19.26
2022-07-29T20:49:17.432Z,19.24
2022-07-29T20:52:19.594Z,19.22
2022-07-29T20:55:21.192Z,19.25
2022-07-29T20:58:22.631Z,19.22
2022-07-29T21:01:24.929Z,19.22
2022-07-29T21:04:30.515Z,19.27
2022-07-29T21:07:32.439Z,19.30
2022-07-29T21:10:33.816Z,19.29
2022-07-29T21:13:38.387Z,19.33
2022-07-29T21:16:39.848Z,19.42
2022-07-29T21:19:41.266Z,19.43
2022-07-29T21:22:42.745Z,19.48
2022-07-29T21:25:44.139Z,19.52
2022-07-29T21:28:45.551Z,19.49
2022-07-29T21:31:51.513Z,19.50
2022-07-29T21:34:52.940Z,19.50
2022-07-29T21:37:54.489Z,19.48
2022-07-29T21:40:56.051Z,19.45
2022-07-29T21:43:58.341Z,19.44
2022-07-29T21:47:01.359Z,19.49
2022-07-29T21:50:03.108Z,19.45
2022-07-29T21:53:04.572Z,19.47
2022-07-29T21:56:07.596Z,19.45
2022-07-29T21:59:12.832Z,19.36
2022-07-29T22:02:14.428Z,19.35
2022-07-29T22:05:15.906Z,19.27
2022-07-29T22:08:17.357Z,19.21
2022-07-29T22:11:18.783Z,19.04
2022-07-29T22:14:22.258Z,18.94
2022-07-29T22:17:24.367Z,18.88
2022-07-29T22:20:25.783Z,18.77
2022-07-29T22:23:27.212Z,18.79
2022-07-29T22:26:28.692Z,18.73
2022-07-29T22:29:30.182Z,18.53
2022-07-29T22:32:31.578Z,18.30
2022-07-29T22:35:32.989Z,18.27
2022-07-29T22:38:34.467Z,18.05
2022-07-29T22:41:35.933Z,17.93
2022-07-29T22:44:37.369Z,17.90
2022-07-29T22:47:47.921Z,17.86
2022-07-29T22:50:49.981Z,17.83
2022-07-29T22:53:51.404Z,17.67
2022-07-29T22:56:52.839Z,17.57
2022-07-29T22:59:54.262Z,17.52
2022-07-29T23:02:55.700Z,17.42
2022-07-29T23:05:57.105Z,17.32
2022-07-29T23:08:58.518Z,17.32
2022-07-29T23:11:59.932Z,17.36
2022-07-29T23:15:01.338Z,17.28
2022-07-29T23:18:02.988Z,17.27
2022-07-29T23:21:04.449Z,17.38
2022-07-29T23:24:05.938Z,17.36
2022-07-29T23:27:07.337Z,17.28
2022-07-29T23:30:09.015Z,17.17
2022-07-29T23:33:10.469Z,17.01
2022-07-29T23:36:11.902Z,17.00
2022-07-29T23:39:13.540Z,16.86
2022-07-29T23:42:14.975Z,16.74
2022-07-29T23:45:16.393Z,16.55
2022-07-29T23:48:17.775Z,16.30
2022-07-29T23:51:19.285Z,16.24
2022-07-29T23:54:20.720Z,16.19
2022-07-29T23:57:24.086Z,16.09
